sensor_id;sensor_type;location;lat;lon;timestamp;P1;durP1;ratioP1;P2;durP2;ratioP2
70780;SDS011;59514;48.810;2.134;2022-08-20T00:01:23;4.78;;;2.05;;
70780;SDS011;59514;48.810;2.134;2022-08-20T00:03:49;4.95;;;1.95;;
70780;SDS011;59514;48.810;2.134;2022-08-20T00:06:16;5.35;;;1.92;;
70780;SDS011;59514;48.810;2.134;2022-08-20T00:08:44;4.38;;;1.95;;
70780;SDS011;59514;48.810;2.134;2022-08-20T00:11:11;5.28;;;2.13;;
70780;SDS011;59514;48.810;2.134;2022-08-20T00:13:41;5.43;;;2.08;;
70780;SDS011;59514;48.810;2.134;2022-08-20T00:16:09;5.40;;;2.08;;
70780;SDS011;59514;48.810;2.134;2022-08-20T00:18:35;4.75;;;1.90;;
70780;SDS011;59514;48.810;2.134;2022-08-20T00:21:01;6.75;;;2.20;;
70780;SDS011;59514;48.810;2.134;2022-08-20T00:23:29;5.65;;;1.80;;
70780;SDS011;59514;48.810;2.134;2022-08-20T00:25:55;3.70;;;1.85;;
70780;SDS011;59514;48.810;2.134;2022-08-20T00:28:20;5.95;;;2.40;;
70780;SDS011;59514;48.810;2.134;2022-08-20T00:30:46;5.55;;;1.95;;
70780;SDS011;59514;48.810;2.134;2022-08-20T00:33:15;5.72;;;2.20;;
70780;SDS011;59514;48.810;2.134;2022-08-20T00:35:45;5.00;;;1.95;;
70780;SDS011;59514;48.810;2.134;2022-08-20T00:38:13;5.30;;;1.95;;
70780;SDS011;59514;48.810;2.134;2022-08-20T00:40:43;6.18;;;2.00;;
70780;SDS011;59514;48.810;2.134;2022-08-20T00:43:24;4.82;;;2.25;;
70780;SDS011;59514;48.810;2.134;2022-08-20T00:45:55;3.88;;;1.70;;
70780;SDS011;59514;48.810;2.134;2022-08-20T00:48:22;7.60;;;1.95;;
70780;SDS011;59514;48.810;2.134;2022-08-20T00:50:49;6.20;;;2.13;;
70780;SDS011;59514;48.810;2.134;2022-08-20T00:53:15;5.13;;;2.63;;
70780;SDS011;59514;48.810;2.134;2022-08-20T00:55:42;8.05;;;2.47;;
70780;SDS011;59514;48.810;2.134;2022-08-20T00:58:08;5.78;;;2.28;;
70780;SDS011;59514;48.810;2.134;2022-08-20T01:00:35;5.72;;;2.40;;
70780;SDS011;59514;48.810;2.134;2022-08-20T01:03:06;7.05;;;2.60;;
70780;SDS011;59514;48.810;2.134;2022-08-20T01:05:34;4.03;;;2.40;;
70780;SDS011;59514;48.810;2.134;2022-08-20T01:08:00;6.95;;;2.53;;
70780;SDS011;59514;48.810;2.134;2022-08-20T01:10:27;5.28;;;2.55;;
70780;SDS011;59514;48.810;2.134;2022-08-20T01:12:56;5.57;;;2.63;;
70780;SDS011;59514;48.810;2.134;2022-08-20T01:15:23;8.48;;;2.47;;
70780;SDS011;59514;48.810;2.134;2022-08-20T01:17:53;7.93;;;2.47;;
70780;SDS011;59514;48.810;2.134;2022-08-20T01:20:27;6.32;;;2.67;;
70780;SDS011;59514;48.810;2.134;2022-08-20T01:23:06;6.68;;;2.40;;
70780;SDS011;59514;48.810;2.134;2022-08-20T01:28:39;6.03;;;2.05;;
70780;SDS011;59514;48.810;2.134;2022-08-20T01:31:06;9.38;;;3.08;;
70780;SDS011;59514;48.810;2.134;2022-08-20T01:33:33;7.22;;;2.70;;
70780;SDS011;59514;48.810;2.134;2022-08-20T01:35:59;6.10;;;2.55;;
70780;SDS011;59514;48.810;2.134;2022-08-20T01:38:26;7.72;;;2.67;;
70780;SDS011;59514;48.810;2.134;2022-08-20T01:41:03;5.72;;;2.47;;
70780;SDS011;59514;48.810;2.134;2022-08-20T01:43:47;5.80;;;2.85;;
70780;SDS011;59514;48.810;2.134;2022-08-20T01:46:20;5.28;;;2.50;;
70780;SDS011;59514;48.810;2.134;2022-08-20T01:48:51;9.23;;;3.10;;
70780;SDS011;59514;48.810;2.134;2022-08-20T01:51:20;7.20;;;2.88;;
70780;SDS011;59514;48.810;2.134;2022-08-20T01:53:50;7.65;;;3.15;;
70780;SDS011;59514;48.810;2.134;2022-08-20T01:56:19;4.55;;;2.53;;
70780;SDS011;59514;48.810;2.134;2022-08-20T01:58:50;6.78;;;2.97;;
70780;SDS011;59514;48.810;2.134;2022-08-20T02:03:47;3.55;;;2.42;;
70780;SDS011;59514;48.810;2.134;2022-08-20T02:06:12;5.90;;;3.13;;
70780;SDS011;59514;48.810;2.134;2022-08-20T02:08:37;7.80;;;3.30;;
70780;SDS011;59514;48.810;2.134;2022-08-20T02:11:03;6.97;;;2.85;;
70780;SDS011;59514;48.810;2.134;2022-08-20T02:13:28;6.20;;;2.90;;
70780;SDS011;59514;48.810;2.134;2022-08-20T02:15:53;6.13;;;2.63;;
70780;SDS011;59514;48.810;2.134;2022-08-20T02:18:19;7.38;;;2.47;;
70780;SDS011;59514;48.810;2.134;2022-08-20T02:20:45;8.48;;;3.05;;
70780;SDS011;59514;48.810;2.134;2022-08-20T02:23:11;7.53;;;2.42;;
70780;SDS011;59514;48.810;2.134;2022-08-20T02:25:39;8.00;;;2.72;;
70780;SDS011;59514;48.810;2.134;2022-08-20T02:28:08;6.50;;;2.42;;
70780;SDS011;59514;48.810;2.134;2022-08-20T02:30:37;4.40;;;2.85;;
70780;SDS011;59514;48.810;2.134;2022-08-20T02:33:05;5.38;;;2.53;;
70780;SDS011;59514;48.810;2.134;2022-08-20T02:35:33;4.72;;;2.50;;
70780;SDS011;59514;48.810;2.134;2022-08-20T02:37:59;5.38;;;2.50;;
70780;SDS011;59514;48.810;2.134;2022-08-20T02:40:25;4.95;;;2.42;;
70780;SDS011;59514;48.810;2.134;2022-08-20T02:42:52;5.13;;;2.70;;
70780;SDS011;59514;48.810;2.134;2022-08-20T02:45:18;5.97;;;2.58;;
70780;SDS011;59514;48.810;2.134;2022-08-20T02:47:46;5.82;;;1.85;;
70780;SDS011;59514;48.810;2.134;2022-08-20T02:50:13;5.57;;;2.55;;
70780;SDS011;59514;48.810;2.134;2022-08-20T02:52:42;6.82;;;2.58;;
70780;SDS011;59514;48.810;2.134;2022-08-20T02:55:08;6.22;;;2.53;;
70780;SDS011;59514;48.810;2.134;2022-08-20T02:57:35;6.68;;;2.58;;
70780;SDS011;59514;48.810;2.134;2022-08-20T03:00:03;7.93;;;2.30;;
70780;SDS011;59514;48.810;2.134;2022-08-20T03:02:30;6.50;;;2.50;;
70780;SDS011;59514;48.810;2.134;2022-08-20T03:04:56;7.60;;;2.80;;
70780;SDS011;59514;48.810;2.134;2022-08-20T03:07:21;6.13;;;2.38;;
70780;SDS011;59514;48.810;2.134;2022-08-20T03:09:46;4.78;;;2.42;;
70780;SDS011;59514;48.810;2.134;2022-08-20T03:12:12;5.45;;;2.45;;
70780;SDS011;59514;48.810;2.134;2022-08-20T03:14:37;5.80;;;2.40;;
70780;SDS011;59514;48.810;2.134;2022-08-20T03:17:02;7.22;;;2.60;;
70780;SDS011;59514;48.810;2.134;2022-08-20T03:19:28;7.00;;;2.40;;
70780;SDS011;59514;48.810;2.134;2022-08-20T03:21:53;10.43;;;2.92;;
70780;SDS011;59514;48.810;2.134;2022-08-20T03:24:19;11.07;;;2.72;;
70780;SDS011;59514;48.810;2.134;2022-08-20T03:26:44;7.10;;;2.17;;
70780;SDS011;59514;48.810;2.134;2022-08-20T03:29:10;7.50;;;3.22;;
70780;SDS011;59514;48.810;2.134;2022-08-20T03:31:35;6.72;;;2.75;;
70780;SDS011;59514;48.810;2.134;2022-08-20T03:34:01;6.13;;;2.92;;
70780;SDS011;59514;48.810;2.134;2022-08-20T03:36:27;7.05;;;2.55;;
70780;SDS011;59514;48.810;2.134;2022-08-20T03:38:53;4.82;;;2.17;;
70780;SDS011;59514;48.810;2.134;2022-08-20T03:41:23;8.98;;;2.70;;
70780;SDS011;59514;48.810;2.134;2022-08-20T03:43:49;6.70;;;2.47;;
70780;SDS011;59514;48.810;2.134;2022-08-20T03:46:14;8.52;;;3.00;;
70780;SDS011;59514;48.810;2.134;2022-08-20T03:48:40;8.82;;;3.00;;
70780;SDS011;59514;48.810;2.134;2022-08-20T03:51:05;7.95;;;3.10;;
70780;SDS011;59514;48.810;2.134;2022-08-20T03:53:31;8.20;;;2.67;;
70780;SDS011;59514;48.810;2.134;2022-08-20T03:55:58;8.50;;;2.88;;
70780;SDS011;59514;48.810;2.134;2022-08-20T03:58:26;8.15;;;2.75;;
70780;SDS011;59514;48.810;2.134;2022-08-20T04:00:52;9.10;;;3.30;;
70780;SDS011;59514;48.810;2.134;2022-08-20T04:03:19;7.80;;;2.60;;
70780;SDS011;59514;48.810;2.134;2022-08-20T04:05:46;8.43;;;2.75;;
70780;SDS011;59514;48.810;2.134;2022-08-20T04:08:13;7.50;;;2.70;;
70780;SDS011;59514;48.810;2.134;2022-08-20T04:10:42;8.90;;;2.90;;
70780;SDS011;59514;48.810;2.134;2022-08-20T04:13:10;7.10;;;2.60;;
70780;SDS011;59514;48.810;2.134;2022-08-20T04:15:36;5.95;;;2.63;;
70780;SDS011;59514;48.810;2.134;2022-08-20T04:18:01;5.03;;;2.85;;
70780;SDS011;59514;48.810;2.134;2022-08-20T04:20:32;6.97;;;3.10;;
70780;SDS011;59514;48.810;2.134;2022-08-20T04:22:59;6.35;;;3.03;;
70780;SDS011;59514;48.810;2.134;2022-08-20T04:25:29;6.43;;;2.78;;
70780;SDS011;59514;48.810;2.134;2022-08-20T04:27:59;9.02;;;3.00;;
70780;SDS011;59514;48.810;2.134;2022-08-20T04:30:27;11.35;;;3.13;;
70780;SDS011;59514;48.810;2.134;2022-08-20T04:32:54;6.78;;;2.75;;
70780;SDS011;59514;48.810;2.134;2022-08-20T04:35:20;10.25;;;3.28;;
70780;SDS011;59514;48.810;2.134;2022-08-20T04:37:48;7.03;;;2.47;;
70780;SDS011;59514;48.810;2.134;2022-08-20T04:40:20;5.07;;;2.75;;
70780;SDS011;59514;48.810;2.134;2022-08-20T04:43:04;7.60;;;3.10;;
70780;SDS011;59514;48.810;2.134;2022-08-20T04:45:31;6.70;;;3.40;;
70780;SDS011;59514;48.810;2.134;2022-08-20T04:47:57;7.45;;;3.13;;
70780;SDS011;59514;48.810;2.134;2022-08-20T04:50:29;7.53;;;2.63;;
70780;SDS011;59514;48.810;2.134;2022-08-20T04:52:58;6.00;;;3.03;;
70780;SDS011;59514;48.810;2.134;2022-08-20T04:55:23;7.82;;;2.88;;
70780;SDS011;59514;48.810;2.134;2022-08-20T04:57:49;7.32;;;3.22;;
70780;SDS011;59514;48.810;2.134;2022-08-20T05:00:14;6.85;;;2.65;;
70780;SDS011;59514;48.810;2.134;2022-08-20T05:02:41;6.78;;;2.50;;
70780;SDS011;59514;48.810;2.134;2022-08-20T05:05:07;6.68;;;2.90;;
70780;SDS011;59514;48.810;2.134;2022-08-20T05:07:37;6.10;;;2.67;;
70780;SDS011;59514;48.810;2.134;2022-08-20T05:10:08;6.53;;;2.38;;
70780;SDS011;59514;48.810;2.134;2022-08-20T05:12:35;7.88;;;2.92;;
70780;SDS011;59514;48.810;2.134;2022-08-20T05:15:02;8.25;;;3.22;;
70780;SDS011;59514;48.810;2.134;2022-08-20T05:17:29;5.63;;;2.47;;
70780;SDS011;59514;48.810;2.134;2022-08-20T05:19:54;5.03;;;2.63;;
70780;SDS011;59514;48.810;2.134;2022-08-20T05:22:19;6.72;;;3.33;;
70780;SDS011;59514;48.810;2.134;2022-08-20T05:24:45;8.63;;;3.15;;
70780;SDS011;59514;48.810;2.134;2022-08-20T05:27:10;7.60;;;3.03;;
70780;SDS011;59514;48.810;2.134;2022-08-20T05:29:36;7.88;;;3.10;;
70780;SDS011;59514;48.810;2.134;2022-08-20T05:32:01;9.38;;;2.78;;
70780;SDS011;59514;48.810;2.134;2022-08-20T05:34:27;6.45;;;2.90;;
70780;SDS011;59514;48.810;2.134;2022-08-20T05:36:52;7.38;;;2.85;;
70780;SDS011;59514;48.810;2.134;2022-08-20T05:39:18;8.55;;;3.15;;
70780;SDS011;59514;48.810;2.134;2022-08-20T05:41:45;7.47;;;2.95;;
70780;SDS011;59514;48.810;2.134;2022-08-20T05:44:15;4.18;;;2.20;;
70780;SDS011;59514;48.810;2.134;2022-08-20T05:46:42;8.35;;;3.00;;
70780;SDS011;59514;48.810;2.134;2022-08-20T05:49:09;5.78;;;2.55;;
70780;SDS011;59514;48.810;2.134;2022-08-20T05:51:36;6.82;;;2.80;;
70780;SDS011;59514;48.810;2.134;2022-08-20T05:54:02;6.50;;;2.92;;
70780;SDS011;59514;48.810;2.134;2022-08-20T05:56:28;9.02;;;3.63;;
70780;SDS011;59514;48.810;2.134;2022-08-20T05:58:54;10.02;;;3.72;;
70780;SDS011;59514;48.810;2.134;2022-08-20T06:01:19;5.78;;;2.90;;
70780;SDS011;59514;48.810;2.134;2022-08-20T06:03:45;8.02;;;3.38;;
70780;SDS011;59514;48.810;2.134;2022-08-20T06:06:29;8.55;;;3.80;;
70780;SDS011;59514;48.810;2.134;2022-08-20T06:08:55;8.45;;;3.28;;
70780;SDS011;59514;48.810;2.134;2022-08-20T06:11:21;8.52;;;2.83;;
70780;SDS011;59514;48.810;2.134;2022-08-20T06:13:47;10.40;;;3.55;;
70780;SDS011;59514;48.810;2.134;2022-08-20T06:16:12;8.75;;;3.30;;
70780;SDS011;59514;48.810;2.134;2022-08-20T06:18:37;5.28;;;2.90;;
70780;SDS011;59514;48.810;2.134;2022-08-20T06:21:03;11.88;;;3.50;;
70780;SDS011;59514;48.810;2.134;2022-08-20T06:23:28;6.68;;;3.22;;
70780;SDS011;59514;48.810;2.134;2022-08-20T06:25:53;9.52;;;3.55;;
70780;SDS011;59514;48.810;2.134;2022-08-20T06:28:19;10.13;;;3.42;;
70780;SDS011;59514;48.810;2.134;2022-08-20T06:30:44;11.73;;;3.65;;
70780;SDS011;59514;48.810;2.134;2022-08-20T06:33:10;9.35;;;3.13;;
70780;SDS011;59514;48.810;2.134;2022-08-20T06:35:36;7.78;;;3.22;;
70780;SDS011;59514;48.810;2.134;2022-08-20T06:38:02;7.45;;;3.33;;
70780;SDS011;59514;48.810;2.134;2022-08-20T06:40:29;7.90;;;2.83;;
70780;SDS011;59514;48.810;2.134;2022-08-20T06:42:55;10.43;;;3.22;;
70780;SDS011;59514;48.810;2.134;2022-08-20T06:45:25;10.35;;;2.70;;
70780;SDS011;59514;48.810;2.134;2022-08-20T06:47:53;8.82;;;3.38;;
70780;SDS011;59514;48.810;2.134;2022-08-20T06:50:26;9.35;;;2.92;;
70780;SDS011;59514;48.810;2.134;2022-08-20T06:52:53;9.82;;;2.47;;
70780;SDS011;59514;48.810;2.134;2022-08-20T06:55:19;10.57;;;2.75;;
70780;SDS011;59514;48.810;2.134;2022-08-20T06:57:45;10.50;;;3.00;;
70780;SDS011;59514;48.810;2.134;2022-08-20T07:00:14;12.15;;;2.97;;
70780;SDS011;59514;48.810;2.134;2022-08-20T07:02:42;13.25;;;3.20;;
70780;SDS011;59514;48.810;2.134;2022-08-20T07:05:07;14.18;;;4.20;;
70780;SDS011;59514;48.810;2.134;2022-08-20T07:07:34;10.82;;;2.78;;
70780;SDS011;59514;48.810;2.134;2022-08-20T07:10:03;11.45;;;3.22;;
70780;SDS011;59514;48.810;2.134;2022-08-20T07:12:31;11.75;;;3.50;;
70780;SDS011;59514;48.810;2.134;2022-08-20T07:14:58;12.27;;;3.33;;
70780;SDS011;59514;48.810;2.134;2022-08-20T07:17:24;11.27;;;3.28;;
70780;SDS011;59514;48.810;2.134;2022-08-20T07:19:49;13.60;;;3.72;;
70780;SDS011;59514;48.810;2.134;2022-08-20T07:22:15;14.82;;;3.47;;
70780;SDS011;59514;48.810;2.134;2022-08-20T07:24:40;12.80;;;3.17;;
70780;SDS011;59514;48.810;2.134;2022-08-20T07:27:05;9.65;;;3.55;;
70780;SDS011;59514;48.810;2.134;2022-08-20T07:29:31;14.38;;;3.03;;
70780;SDS011;59514;48.810;2.134;2022-08-20T07:32:15;11.70;;;2.97;;
70780;SDS011;59514;48.810;2.134;2022-08-20T07:34:59;12.02;;;2.80;;
70780;SDS011;59514;48.810;2.134;2022-08-20T07:37:24;14.43;;;3.70;;
70780;SDS011;59514;48.810;2.134;2022-08-20T07:39:50;12.65;;;3.33;;
70780;SDS011;59514;48.810;2.134;2022-08-20T07:42:16;16.83;;;3.47;;
70780;SDS011;59514;48.810;2.134;2022-08-20T07:44:41;12.05;;;3.42;;
70780;SDS011;59514;48.810;2.134;2022-08-20T07:47:06;14.75;;;3.55;;
70780;SDS011;59514;48.810;2.134;2022-08-20T07:49:35;12.50;;;3.40;;
70780;SDS011;59514;48.810;2.134;2022-08-20T07:52:02;13.45;;;3.38;;
70780;SDS011;59514;48.810;2.134;2022-08-20T07:54:28;14.70;;;3.50;;
70780;SDS011;59514;48.810;2.134;2022-08-20T07:56:54;8.50;;;3.28;;
70780;SDS011;59514;48.810;2.134;2022-08-20T07:59:19;14.18;;;3.17;;
70780;SDS011;59514;48.810;2.134;2022-08-20T08:01:45;15.82;;;3.55;;
70780;SDS011;59514;48.810;2.134;2022-08-20T08:04:10;15.65;;;3.25;;
70780;SDS011;59514;48.810;2.134;2022-08-20T08:06:36;11.60;;;3.47;;
70780;SDS011;59514;48.810;2.134;2022-08-20T08:09:03;13.38;;;3.67;;
70780;SDS011;59514;48.810;2.134;2022-08-20T08:11:30;13.68;;;4.57;;
70780;SDS011;59514;48.810;2.134;2022-08-20T08:13:58;14.00;;;3.90;;
70780;SDS011;59514;48.810;2.134;2022-08-20T08:16:24;13.52;;;4.18;;
70780;SDS011;59514;48.810;2.134;2022-08-20T08:18:51;11.32;;;3.45;;
70780;SDS011;59514;48.810;2.134;2022-08-20T08:21:20;11.82;;;3.80;;
70780;SDS011;59514;48.810;2.134;2022-08-20T08:23:47;13.55;;;3.60;;
70780;SDS011;59514;48.810;2.134;2022-08-20T08:26:14;13.00;;;3.85;;
70780;SDS011;59514;48.810;2.134;2022-08-20T08:28:40;14.35;;;3.58;;
70780;SDS011;59514;48.810;2.134;2022-08-20T08:31:08;14.63;;;3.90;;
70780;SDS011;59514;48.810;2.134;2022-08-20T08:33:34;10.35;;;3.28;;
70780;SDS011;59514;48.810;2.134;2022-08-20T08:36:00;15.05;;;3.92;;
70780;SDS011;59514;48.810;2.134;2022-08-20T08:38:29;17.88;;;3.70;;
70780;SDS011;59514;48.810;2.134;2022-08-20T08:40:57;13.13;;;4.05;;
70780;SDS011;59514;48.810;2.134;2022-08-20T08:43:27;12.27;;;3.60;;
70780;SDS011;59514;48.810;2.134;2022-08-20T08:46:03;14.18;;;3.83;;
70780;SDS011;59514;48.810;2.134;2022-08-20T08:48:32;11.15;;;3.28;;
70780;SDS011;59514;48.810;2.134;2022-08-20T08:51:05;13.35;;;3.40;;
70780;SDS011;59514;48.810;2.134;2022-08-20T08:56:06;14.88;;;3.42;;
70780;SDS011;59514;48.810;2.134;2022-08-20T08:58:33;14.98;;;4.40;;
70780;SDS011;59514;48.810;2.134;2022-08-20T09:01:12;12.98;;;3.63;;
70780;SDS011;59514;48.810;2.134;2022-08-20T09:03:40;11.00;;;3.07;;
70780;SDS011;59514;48.810;2.134;2022-08-20T09:06:10;15.02;;;3.30;;
70780;SDS011;59514;48.810;2.134;2022-08-20T09:11:53;10.85;;;3.55;;
70780;SDS011;59514;48.810;2.134;2022-08-20T09:14:21;12.27;;;2.97;;
70780;SDS011;59514;48.810;2.134;2022-08-20T09:16:48;9.60;;;3.10;;
70780;SDS011;59514;48.810;2.134;2022-08-20T09:19:14;16.05;;;3.35;;
70780;SDS011;59514;48.810;2.134;2022-08-20T09:21:40;10.77;;;2.95;;
70780;SDS011;59514;48.810;2.134;2022-08-20T09:24:05;11.57;;;3.00;;
70780;SDS011;59514;48.810;2.134;2022-08-20T09:26:30;14.00;;;3.05;;
70780;SDS011;59514;48.810;2.134;2022-08-20T09:28:56;10.25;;;2.83;;
70780;SDS011;59514;48.810;2.134;2022-08-20T09:31:21;6.50;;;2.40;;
70780;SDS011;59514;48.810;2.134;2022-08-20T09:33:48;7.25;;;2.63;;
70780;SDS011;59514;48.810;2.134;2022-08-20T09:36:14;9.82;;;2.60;;
70780;SDS011;59514;48.810;2.134;2022-08-20T09:38:39;12.68;;;2.72;;
70780;SDS011;59514;48.810;2.134;2022-08-20T09:41:05;8.80;;;3.00;;
70780;SDS011;59514;48.810;2.134;2022-08-20T09:43:30;9.38;;;2.92;;
70780;SDS011;59514;48.810;2.134;2022-08-20T09:45:55;11.05;;;2.40;;
70780;SDS011;59514;48.810;2.134;2022-08-20T09:48:20;10.10;;;3.60;;
70780;SDS011;59514;48.810;2.134;2022-08-20T09:50:46;10.35;;;2.60;;
70780;SDS011;59514;48.810;2.134;2022-08-20T09:53:13;11.75;;;3.08;;
70780;SDS011;59514;48.810;2.134;2022-08-20T09:55:40;9.93;;;2.30;;
70780;SDS011;59514;48.810;2.134;2022-08-20T10:00:55;7.85;;;2.22;;
70780;SDS011;59514;48.810;2.134;2022-08-20T10:03:21;11.38;;;2.55;;
70780;SDS011;59514;48.810;2.134;2022-08-20T10:05:47;8.18;;;2.28;;
70780;SDS011;59514;48.810;2.134;2022-08-20T10:08:12;9.60;;;2.40;;
70780;SDS011;59514;48.810;2.134;2022-08-20T10:10:38;7.50;;;2.25;;
70780;SDS011;59514;48.810;2.134;2022-08-20T10:13:03;7.18;;;1.88;;
70780;SDS011;59514;48.810;2.134;2022-08-20T10:15:29;7.88;;;2.38;;
70780;SDS011;59514;48.810;2.134;2022-08-20T10:17:55;5.68;;;2.30;;
70780;SDS011;59514;48.810;2.134;2022-08-20T10:20:22;8.73;;;2.25;;
70780;SDS011;59514;48.810;2.134;2022-08-20T10:22:48;11.05;;;2.38;;
70780;SDS011;59514;48.810;2.134;2022-08-20T10:25:14;8.25;;;2.45;;
70780;SDS011;59514;48.810;2.134;2022-08-20T10:27:41;10.77;;;2.45;;
70780;SDS011;59514;48.810;2.134;2022-08-20T10:30:07;7.00;;;2.25;;
70780;SDS011;59514;48.810;2.134;2022-08-20T10:32:33;8.55;;;3.03;;
70780;SDS011;59514;48.810;2.134;2022-08-20T10:34:58;8.57;;;2.30;;
70780;SDS011;59514;48.810;2.134;2022-08-20T10:37:24;7.50;;;2.40;;
70780;SDS011;59514;48.810;2.134;2022-08-20T10:39:50;7.50;;;2.15;;
70780;SDS011;59514;48.810;2.134;2022-08-20T10:42:16;7.97;;;2.15;;
70780;SDS011;59514;48.810;2.134;2022-08-20T10:44:41;10.50;;;2.28;;
70780;SDS011;59514;48.810;2.134;2022-08-20T10:47:18;8.93;;;2.47;;
70780;SDS011;59514;48.810;2.134;2022-08-20T10:49:43;8.65;;;2.58;;
70780;SDS011;59514;48.810;2.134;2022-08-20T10:52:10;7.57;;;2.53;;
70780;SDS011;59514;48.810;2.134;2022-08-20T10:54:35;13.27;;;9.43;;
70780;SDS011;59514;48.810;2.134;2022-08-20T10:57:01;7.75;;;2.22;;
70780;SDS011;59514;48.810;2.134;2022-08-20T10:59:28;7.13;;;2.00;;
70780;SDS011;59514;48.810;2.134;2022-08-20T11:01:53;7.57;;;2.03;;
70780;SDS011;59514;48.810;2.134;2022-08-20T11:04:18;6.60;;;1.93;;
70780;SDS011;59514;48.810;2.134;2022-08-20T11:06:44;6.90;;;2.43;;
70780;SDS011;59514;48.810;2.134;2022-08-20T11:09:09;5.22;;;1.88;;
70780;SDS011;59514;48.810;2.134;2022-08-20T11:11:34;5.47;;;2.17;;
70780;SDS011;59514;48.810;2.134;2022-08-20T11:14:00;5.83;;;2.00;;
70780;SDS011;59514;48.810;2.134;2022-08-20T11:16:25;7.72;;;2.60;;
70780;SDS011;59514;48.810;2.134;2022-08-20T11:18:50;8.23;;;2.33;;
70780;SDS011;59514;48.810;2.134;2022-08-20T11:21:16;6.68;;;2.35;;
70780;SDS011;59514;48.810;2.134;2022-08-20T11:23:41;5.67;;;2.23;;
70780;SDS011;59514;48.810;2.134;2022-08-20T11:26:06;5.85;;;1.88;;
70780;SDS011;59514;48.810;2.134;2022-08-20T11:28:32;6.38;;;2.40;;
70780;SDS011;59514;48.810;2.134;2022-08-20T11:30:58;6.60;;;2.15;;
70780;SDS011;59514;48.810;2.134;2022-08-20T11:33:24;5.50;;;2.10;;
70780;SDS011;59514;48.810;2.134;2022-08-20T11:35:49;8.82;;;2.22;;
70780;SDS011;59514;48.810;2.134;2022-08-20T11:38:15;9.93;;;3.50;;
70780;SDS011;59514;48.810;2.134;2022-08-20T11:40:41;6.85;;;2.63;;
70780;SDS011;59514;48.810;2.134;2022-08-20T11:43:06;4.77;;;2.10;;
70780;SDS011;59514;48.810;2.134;2022-08-20T11:45:32;5.55;;;3.00;;
70780;SDS011;59514;48.810;2.134;2022-08-20T11:47:57;8.02;;;6.20;;
70780;SDS011;59514;48.810;2.134;2022-08-20T11:50:22;7.23;;;2.57;;
70780;SDS011;59514;48.810;2.134;2022-08-20T11:52:48;6.28;;;2.70;;
70780;SDS011;59514;48.810;2.134;2022-08-20T11:55:14;5.28;;;2.08;;
70780;SDS011;59514;48.810;2.134;2022-08-20T11:57:41;7.20;;;2.67;;
70780;SDS011;59514;48.810;2.134;2022-08-20T12:00:10;6.22;;;2.25;;
70780;SDS011;59514;48.810;2.134;2022-08-20T12:02:41;7.00;;;2.28;;
70780;SDS011;59514;48.810;2.134;2022-08-20T12:05:07;6.63;;;2.30;;
70780;SDS011;59514;48.810;2.134;2022-08-20T12:07:35;5.93;;;2.33;;
70780;SDS011;59514;48.810;2.134;2022-08-20T12:10:00;7.88;;;2.65;;
70780;SDS011;59514;48.810;2.134;2022-08-20T12:12:26;6.45;;;2.40;;
70780;SDS011;59514;48.810;2.134;2022-08-20T12:14:51;5.50;;;2.27;;
70780;SDS011;59514;48.810;2.134;2022-08-20T12:17:20;6.88;;;3.10;;
70780;SDS011;59514;48.810;2.134;2022-08-20T12:19:48;6.07;;;2.60;;
70780;SDS011;59514;48.810;2.134;2022-08-20T12:22:15;5.80;;;2.15;;
70780;SDS011;59514;48.810;2.134;2022-08-20T12:24:41;5.35;;;2.35;;
70780;SDS011;59514;48.810;2.134;2022-08-20T12:27:11;7.63;;;2.30;;
70780;SDS011;59514;48.810;2.134;2022-08-20T12:32:05;4.68;;;2.03;;
70780;SDS011;59514;48.810;2.134;2022-08-20T12:34:32;6.43;;;2.85;;
70780;SDS011;59514;48.810;2.134;2022-08-20T12:37:01;5.32;;;2.30;;
70780;SDS011;59514;48.810;2.134;2022-08-20T12:39:29;7.80;;;2.40;;
70780;SDS011;59514;48.810;2.134;2022-08-20T12:41:57;9.38;;;2.75;;
70780;SDS011;59514;48.810;2.134;2022-08-20T12:44:23;5.95;;;2.10;;
70780;SDS011;59514;48.810;2.134;2022-08-20T12:46:48;6.53;;;2.40;;
70780;SDS011;59514;48.810;2.134;2022-08-20T12:49:14;6.53;;;2.55;;
70780;SDS011;59514;48.810;2.134;2022-08-20T12:51:39;6.07;;;2.60;;
70780;SDS011;59514;48.810;2.134;2022-08-20T12:54:04;5.27;;;2.30;;
70780;SDS011;59514;48.810;2.134;2022-08-20T12:56:29;4.97;;;2.57;;
70780;SDS011;59514;48.810;2.134;2022-08-20T12:58:55;5.15;;;2.35;;
70780;SDS011;59514;48.810;2.134;2022-08-20T13:01:20;6.47;;;2.43;;
70780;SDS011;59514;48.810;2.134;2022-08-20T13:03:45;6.67;;;2.80;;
70780;SDS011;59514;48.810;2.134;2022-08-20T13:06:11;6.10;;;2.57;;
70780;SDS011;59514;48.810;2.134;2022-08-20T13:08:36;6.07;;;2.80;;
70780;SDS011;59514;48.810;2.134;2022-08-20T13:11:01;5.50;;;2.50;;
70780;SDS011;59514;48.810;2.134;2022-08-20T13:13:26;6.32;;;2.72;;
70780;SDS011;59514;48.810;2.134;2022-08-20T13:15:52;5.97;;;2.60;;
70780;SDS011;59514;48.810;2.134;2022-08-20T13:18:17;5.97;;;2.70;;
70780;SDS011;59514;48.810;2.134;2022-08-20T13:20:43;5.00;;;3.08;;
70780;SDS011;59514;48.810;2.134;2022-08-20T13:23:09;5.97;;;2.50;;
70780;SDS011;59514;48.810;2.134;2022-08-20T13:25:34;6.45;;;2.72;;
70780;SDS011;59514;48.810;2.134;2022-08-20T13:28:00;5.75;;;2.30;;
70780;SDS011;59514;48.810;2.134;2022-08-20T13:30:28;7.13;;;2.35;;
70780;SDS011;59514;48.810;2.134;2022-08-20T13:32:54;7.18;;;2.40;;
70780;SDS011;59514;48.810;2.134;2022-08-20T13:35:19;6.85;;;2.65;;
70780;SDS011;59514;48.810;2.134;2022-08-20T13:37:46;4.22;;;2.13;;
70780;SDS011;59514;48.810;2.134;2022-08-20T13:40:12;5.43;;;2.25;;
70780;SDS011;59514;48.810;2.134;2022-08-20T13:42:37;5.22;;;2.30;;
70780;SDS011;59514;48.810;2.134;2022-08-20T13:45:03;5.80;;;2.50;;
70780;SDS011;59514;48.810;2.134;2022-08-20T13:47:31;7.07;;;2.60;;
70780;SDS011;59514;48.810;2.134;2022-08-20T13:50:12;5.22;;;2.03;;
70780;SDS011;59514;48.810;2.134;2022-08-20T13:52:41;8.07;;;2.58;;
70780;SDS011;59514;48.810;2.134;2022-08-20T13:55:07;5.47;;;2.30;;
70780;SDS011;59514;48.810;2.134;2022-08-20T13:57:34;4.15;;;2.17;;
70780;SDS011;59514;48.810;2.134;2022-08-20T14:00:00;4.90;;;2.00;;
70780;SDS011;59514;48.810;2.134;2022-08-20T14:02:26;6.63;;;2.47;;
70780;SDS011;59514;48.810;2.134;2022-08-20T14:04:51;4.90;;;1.90;;
70780;SDS011;59514;48.810;2.134;2022-08-20T14:07:19;5.60;;;2.20;;
70780;SDS011;59514;48.810;2.134;2022-08-20T14:09:55;5.97;;;2.15;;
70780;SDS011;59514;48.810;2.134;2022-08-20T14:12:23;5.72;;;2.17;;
70780;SDS011;59514;48.810;2.134;2022-08-20T14:14:50;4.93;;;1.67;;
70780;SDS011;59514;48.810;2.134;2022-08-20T14:17:26;4.28;;;2.10;;
70780;SDS011;59514;48.810;2.134;2022-08-20T14:20:04;3.90;;;1.92;;
70780;SDS011;59514;48.810;2.134;2022-08-20T14:22:32;4.05;;;1.92;;
70780;SDS011;59514;48.810;2.134;2022-08-20T14:24:58;5.05;;;1.80;;
70780;SDS011;59514;48.810;2.134;2022-08-20T14:27:28;5.78;;;2.13;;
70780;SDS011;59514;48.810;2.134;2022-08-20T14:29:54;5.57;;;2.20;;
70780;SDS011;59514;48.810;2.134;2022-08-20T14:32:20;5.63;;;2.38;;
70780;SDS011;59514;48.810;2.134;2022-08-20T14:34:46;6.80;;;2.20;;
70780;SDS011;59514;48.810;2.134;2022-08-20T14:37:16;6.60;;;2.33;;
70780;SDS011;59514;48.810;2.134;2022-08-20T14:39:44;5.50;;;1.98;;
70780;SDS011;59514;48.810;2.134;2022-08-20T14:42:11;7.97;;;2.38;;
70780;SDS011;59514;48.810;2.134;2022-08-20T14:44:37;5.03;;;1.63;;
70780;SDS011;59514;48.810;2.134;2022-08-20T14:47:10;5.80;;;1.92;;
70780;SDS011;59514;48.810;2.134;2022-08-20T14:49:35;5.43;;;1.80;;
70780;SDS011;59514;48.810;2.134;2022-08-20T14:52:01;5.55;;;2.13;;
70780;SDS011;59514;48.810;2.134;2022-08-20T14:54:26;3.45;;;1.70;;
70780;SDS011;59514;48.810;2.134;2022-08-20T14:56:51;5.83;;;2.17;;
70780;SDS011;59514;48.810;2.134;2022-08-20T14:59:16;5.45;;;1.98;;
70780;SDS011;59514;48.810;2.134;2022-08-20T15:01:42;4.97;;;2.10;;